sensor_id;sensor_type;location;lat;lon;timestamp;P1;durP1;ratioP1;P2;durP2;ratioP2
19161;SDS011;9713;48.140;11.530;2023-12-29T00:02:42;1.93;;;1.40;;
19161;SDS011;9713;48.140;11.530;2023-12-29T00:06:27;3.60;;;1.37;;
19161;SDS011;9713;48.140;11.530;2023-12-29T00:10:09;1.90;;;1.30;;
19161;SDS011;9713;48.140;11.530;2023-12-29T00:13:52;1.60;;;1.20;;
19161;SDS011;9713;48.140;11.530;2023-12-29T00:17:35;2.20;;;1.27;;
19161;SDS011;9713;48.140;11.530;2023-12-29T00:21:21;1.47;;;1.13;;
19161;SDS011;9713;48.140;11.530;2023-12-29T00:25:06;2.43;;;1.40;;
19161;SDS011;9713;48.140;11.530;2023-12-29T00:28:50;1.60;;;1.30;;
19161;SDS011;9713;48.140;11.530;2023-12-29T00:32:33;3.27;;;1.37;;
19161;SDS011;9713;48.140;11.530;2023-12-29T00:36:17;1.90;;;1.40;;
19161;SDS011;9713;48.140;11.530;2023-12-29T00:40:01;3.73;;;2.10;;
19161;SDS011;9713;48.140;11.530;2023-12-29T00:43:46;2.77;;;1.50;;
19161;SDS011;9713;48.140;11.530;2023-12-29T00:47:29;2.37;;;1.60;;
19161;SDS011;9713;48.140;11.530;2023-12-29T00:51:12;2.37;;;1.60;;
19161;SDS011;9713;48.140;11.530;2023-12-29T00:54:55;2.90;;;1.83;;
19161;SDS011;9713;48.140;11.530;2023-12-29T00:58:38;2.50;;;1.60;;
19161;SDS011;9713;48.140;11.530;2023-12-29T01:02:23;2.33;;;1.70;;
19161;SDS011;9713;48.140;11.530;2023-12-29T01:06:06;4.00;;;2.07;;
19161;SDS011;9713;48.140;11.530;2023-12-29T01:09:50;3.47;;;2.00;;
19161;SDS011;9713;48.140;11.530;2023-12-29T01:13:33;2.30;;;1.43;;
19161;SDS011;9713;48.140;11.530;2023-12-29T01:17:16;2.03;;;1.57;;
19161;SDS011;9713;48.140;11.530;2023-12-29T01:21:00;2.20;;;1.40;;
19161;SDS011;9713;48.140;11.530;2023-12-29T01:24:43;2.80;;;1.30;;
19161;SDS011;9713;48.140;11.530;2023-12-29T01:28:27;3.23;;;1.90;;
19161;SDS011;9713;48.140;11.530;2023-12-29T01:32:10;2.20;;;1.57;;
19161;SDS011;9713;48.140;11.530;2023-12-29T01:35:53;3.30;;;2.00;;
19161;SDS011;9713;48.140;11.530;2023-12-29T01:39:38;3.13;;;1.70;;
19161;SDS011;9713;48.140;11.530;2023-12-29T01:43:22;2.57;;;1.60;;
19161;SDS011;9713;48.140;11.530;2023-12-29T01:47:11;2.80;;;1.70;;
19161;SDS011;9713;48.140;11.530;2023-12-29T01:50:56;2.90;;;1.83;;
19161;SDS011;9713;48.140;11.530;2023-12-29T01:54:41;2.47;;;1.70;;
19161;SDS011;9713;48.140;11.530;2023-12-29T01:58:24;3.37;;;1.80;;
19161;SDS011;9713;48.140;11.530;2023-12-29T02:02:07;4.33;;;1.70;;
19161;SDS011;9713;48.140;11.530;2023-12-29T02:05:50;2.50;;;1.57;;
19161;SDS011;9713;48.140;11.530;2023-12-29T02:09:37;2.33;;;1.60;;
19161;SDS011;9713;48.140;11.530;2023-12-29T02:13:22;2.73;;;1.83;;
19161;SDS011;9713;48.140;11.530;2023-12-29T02:17:07;2.37;;;1.70;;
19161;SDS011;9713;48.140;11.530;2023-12-29T02:20:54;3.73;;;1.83;;
19161;SDS011;9713;48.140;11.530;2023-12-29T02:24:37;2.37;;;1.60;;
19161;SDS011;9713;48.140;11.530;2023-12-29T02:28:23;3.33;;;1.77;;
19161;SDS011;9713;48.140;11.530;2023-12-29T02:32:08;2.90;;;1.60;;
19161;SDS011;9713;48.140;11.530;2023-12-29T02:35:55;3.70;;;1.83;;
19161;SDS011;9713;48.140;11.530;2023-12-29T02:39:39;2.60;;;1.80;;
19161;SDS011;9713;48.140;11.530;2023-12-29T02:43:24;3.27;;;1.83;;
19161;SDS011;9713;48.140;11.530;2023-12-29T02:47:07;3.50;;;1.67;;
19161;SDS011;9713;48.140;11.530;2023-12-29T02:50:50;2.00;;;1.40;;
19161;SDS011;9713;48.140;11.530;2023-12-29T02:54:33;4.30;;;1.63;;
19161;SDS011;9713;48.140;11.530;2023-12-29T02:58:17;2.80;;;1.57;;
19161;SDS011;9713;48.140;11.530;2023-12-29T03:02:01;2.27;;;1.60;;
19161;SDS011;9713;48.140;11.530;2023-12-29T03:05:44;2.93;;;1.70;;
19161;SDS011;9713;48.140;11.530;2023-12-29T03:09:29;6.00;;;1.67;;
19161;SDS011;9713;48.140;11.530;2023-12-29T03:13:12;2.47;;;1.63;;
19161;SDS011;9713;48.140;11.530;2023-12-29T03:16:55;5.20;;;1.80;;
19161;SDS011;9713;48.140;11.530;2023-12-29T03:20:40;3.03;;;1.60;;
19161;SDS011;9713;48.140;11.530;2023-12-29T03:24:23;3.23;;;1.67;;
19161;SDS011;9713;48.140;11.530;2023-12-29T03:28:06;1.97;;;1.50;;
19161;SDS011;9713;48.140;11.530;2023-12-29T03:31:49;3.13;;;1.70;;
19161;SDS011;9713;48.140;11.530;2023-12-29T03:35:32;2.20;;;1.60;;
19161;SDS011;9713;48.140;11.530;2023-12-29T03:39:17;2.70;;;1.67;;
19161;SDS011;9713;48.140;11.530;2023-12-29T03:43:00;2.40;;;1.60;;
19161;SDS011;9713;48.140;11.530;2023-12-29T03:46:43;1.90;;;1.63;;
19161;SDS011;9713;48.140;11.530;2023-12-29T03:50:26;2.97;;;1.67;;
19161;SDS011;9713;48.140;11.530;2023-12-29T03:54:09;2.73;;;1.50;;
19161;SDS011;9713;48.140;11.530;2023-12-29T03:57:53;2.50;;;1.63;;
19161;SDS011;9713;48.140;11.530;2023-12-29T04:01:36;2.47;;;1.30;;
19161;SDS011;9713;48.140;11.530;2023-12-29T04:05:19;4.23;;;1.70;;
19161;SDS011;9713;48.140;11.530;2023-12-29T04:09:03;3.47;;;1.60;;
19161;SDS011;9713;48.140;11.530;2023-12-29T04:12:46;2.13;;;1.60;;
19161;SDS011;9713;48.140;11.530;2023-12-29T04:16:30;1.87;;;1.40;;
19161;SDS011;9713;48.140;11.530;2023-12-29T04:20:14;2.20;;;1.40;;
19161;SDS011;9713;48.140;11.530;2023-12-29T04:23:57;3.33;;;1.60;;
19161;SDS011;9713;48.140;11.530;2023-12-29T04:27:39;3.07;;;1.57;;
19161;SDS011;9713;48.140;11.530;2023-12-29T04:31:23;2.70;;;1.70;;
19161;SDS011;9713;48.140;11.530;2023-12-29T04:35:07;2.17;;;1.43;;
19161;SDS011;9713;48.140;11.530;2023-12-29T04:38:53;3.17;;;1.63;;
19161;SDS011;9713;48.140;11.530;2023-12-29T04:42:36;2.50;;;1.40;;
19161;SDS011;9713;48.140;11.530;2023-12-29T04:46:20;3.17;;;1.70;;
19161;SDS011;9713;48.140;11.530;2023-12-29T04:50:03;2.70;;;1.70;;
19161;SDS011;9713;48.140;11.530;2023-12-29T04:53:49;3.93;;;1.77;;
19161;SDS011;9713;48.140;11.530;2023-12-29T04:57:31;2.30;;;1.60;;
19161;SDS011;9713;48.140;11.530;2023-12-29T05:01:14;3.30;;;1.90;;
19161;SDS011;9713;48.140;11.530;2023-12-29T05:04:58;3.23;;;1.83;;
19161;SDS011;9713;48.140;11.530;2023-12-29T05:08:41;3.33;;;1.83;;
19161;SDS011;9713;48.140;11.530;2023-12-29T05:12:25;4.20;;;1.57;;
19161;SDS011;9713;48.140;11.530;2023-12-29T05:16:08;3.77;;;2.07;;
19161;SDS011;9713;48.140;11.530;2023-12-29T05:19:51;4.27;;;1.80;;
19161;SDS011;9713;48.140;11.530;2023-12-29T05:23:34;3.40;;;2.00;;
19161;SDS011;9713;48.140;11.530;2023-12-29T05:27:17;2.73;;;1.80;;
19161;SDS011;9713;48.140;11.530;2023-12-29T05:31:02;3.13;;;1.93;;
19161;SDS011;9713;48.140;11.530;2023-12-29T05:34:46;2.87;;;1.77;;
19161;SDS011;9713;48.140;11.530;2023-12-29T05:38:29;4.73;;;2.00;;
19161;SDS011;9713;48.140;11.530;2023-12-29T05:42:14;3.13;;;2.10;;
19161;SDS011;9713;48.140;11.530;2023-12-29T05:45:57;2.80;;;1.90;;
19161;SDS011;9713;48.140;11.530;2023-12-29T05:49:41;3.07;;;2.07;;
19161;SDS011;9713;48.140;11.530;2023-12-29T05:53:24;3.03;;;1.93;;
19161;SDS011;9713;48.140;11.530;2023-12-29T05:57:07;3.27;;;2.00;;
19161;SDS011;9713;48.140;11.530;2023-12-29T06:00:50;3.80;;;2.13;;
19161;SDS011;9713;48.140;11.530;2023-12-29T06:04:34;2.90;;;2.00;;
19161;SDS011;9713;48.140;11.530;2023-12-29T06:08:18;3.90;;;2.00;;
19161;SDS011;9713;48.140;11.530;2023-12-29T06:12:01;3.23;;;2.13;;
19161;SDS011;9713;48.140;11.530;2023-12-29T06:15:44;2.27;;;1.60;;
19161;SDS011;9713;48.140;11.530;2023-12-29T06:19:27;2.70;;;1.63;;
19161;SDS011;9713;48.140;11.530;2023-12-29T06:23:10;3.27;;;1.87;;
19161;SDS011;9713;48.140;11.530;2023-12-29T06:26:55;2.43;;;1.80;;
19161;SDS011;9713;48.140;11.530;2023-12-29T06:30:38;3.57;;;1.83;;
19161;SDS011;9713;48.140;11.530;2023-12-29T06:34:21;2.70;;;1.90;;
19161;SDS011;9713;48.140;11.530;2023-12-29T06:38:04;4.13;;;1.63;;
19161;SDS011;9713;48.140;11.530;2023-12-29T06:41:47;3.23;;;1.63;;
19161;SDS011;9713;48.140;11.530;2023-12-29T06:45:32;4.97;;;1.80;;
19161;SDS011;9713;48.140;11.530;2023-12-29T06:49:15;2.37;;;1.53;;
19161;SDS011;9713;48.140;11.530;2023-12-29T06:52:59;2.80;;;1.70;;
19161;SDS011;9713;48.140;11.530;2023-12-29T06:56:44;3.43;;;1.53;;
19161;SDS011;9713;48.140;11.530;2023-12-29T07:00:27;2.23;;;1.57;;
19161;SDS011;9713;48.140;11.530;2023-12-29T07:04:11;2.53;;;1.50;;
19161;SDS011;9713;48.140;11.530;2023-12-29T07:07:55;2.10;;;1.50;;
19161;SDS011;9713;48.140;11.530;2023-12-29T07:11:38;2.50;;;1.60;;
19161;SDS011;9713;48.140;11.530;2023-12-29T07:15:21;2.37;;;1.60;;
19161;SDS011;9713;48.140;11.530;2023-12-29T07:19:04;3.20;;;1.70;;
19161;SDS011;9713;48.140;11.530;2023-12-29T07:22:49;3.40;;;1.60;;
19161;SDS011;9713;48.140;11.530;2023-12-29T07:26:32;2.07;;;1.57;;
19161;SDS011;9713;48.140;11.530;2023-12-29T07:30:18;2.60;;;1.57;;
19161;SDS011;9713;48.140;11.530;2023-12-29T07:34:01;2.00;;;1.50;;
19161;SDS011;9713;48.140;11.530;2023-12-29T07:37:44;3.17;;;1.50;;
19161;SDS011;9713;48.140;11.530;2023-12-29T07:41:29;2.40;;;1.60;;
19161;SDS011;9713;48.140;11.530;2023-12-29T07:45:12;2.70;;;1.77;;
19161;SDS011;9713;48.140;11.530;2023-12-29T07:48:55;3.33;;;1.50;;
19161;SDS011;9713;48.140;11.530;2023-12-29T07:52:39;2.73;;;1.80;;
19161;SDS011;9713;48.140;11.530;2023-12-29T07:56:22;3.03;;;1.63;;
19161;SDS011;9713;48.140;11.530;2023-12-29T08:00:07;2.33;;;1.80;;
19161;SDS011;9713;48.140;11.530;2023-12-29T08:03:53;2.57;;;1.60;;
19161;SDS011;9713;48.140;11.530;2023-12-29T08:07:37;2.60;;;1.70;;
19161;SDS011;9713;48.140;11.530;2023-12-29T08:11:20;2.90;;;1.80;;
19161;SDS011;9713;48.140;11.530;2023-12-29T08:15:03;2.27;;;1.60;;
19161;SDS011;9713;48.140;11.530;2023-12-29T08:18:49;2.30;;;1.83;;
19161;SDS011;9713;48.140;11.530;2023-12-29T08:22:32;2.90;;;1.60;;
19161;SDS011;9713;48.140;11.530;2023-12-29T08:26:15;5.03;;;2.67;;
19161;SDS011;9713;48.140;11.530;2023-12-29T08:29:58;3.00;;;1.60;;
19161;SDS011;9713;48.140;11.530;2023-12-29T08:33:41;2.57;;;1.70;;
19161;SDS011;9713;48.140;11.530;2023-12-29T08:37:26;3.80;;;1.50;;
19161;SDS011;9713;48.140;11.530;2023-12-29T08:41:09;2.60;;;1.80;;
19161;SDS011;9713;48.140;11.530;2023-12-29T08:44:52;3.57;;;1.63;;
19161;SDS011;9713;48.140;11.530;2023-12-29T08:48:35;2.27;;;1.60;;
19161;SDS011;9713;48.140;11.530;2023-12-29T08:52:18;3.97;;;2.00;;
19161;SDS011;9713;48.140;11.530;2023-12-29T08:56:03;2.30;;;1.70;;
19161;SDS011;9713;48.140;11.530;2023-12-29T08:59:46;3.60;;;1.60;;
19161;SDS011;9713;48.140;11.530;2023-12-29T09:03:29;1.93;;;1.53;;
19161;SDS011;9713;48.140;11.530;2023-12-29T09:07:12;1.60;;;1.40;;
19161;SDS011;9713;48.140;11.530;2023-12-29T09:10:55;2.67;;;1.60;;
19161;SDS011;9713;48.140;11.530;2023-12-29T09:14:40;4.23;;;1.80;;
19161;SDS011;9713;48.140;11.530;2023-12-29T09:18:23;2.70;;;1.60;;
19161;SDS011;9713;48.140;11.530;2023-12-29T09:22:06;1.73;;;1.40;;
19161;SDS011;9713;48.140;11.530;2023-12-29T09:25:49;2.50;;;1.50;;
19161;SDS011;9713;48.140;11.530;2023-12-29T09:29:33;1.80;;;1.30;;
19161;SDS011;9713;48.140;11.530;2023-12-29T09:33:17;2.30;;;1.50;;
19161;SDS011;9713;48.140;11.530;2023-12-29T09:37:00;5.37;;;1.60;;
19161;SDS011;9713;48.140;11.530;2023-12-29T09:40:43;2.97;;;1.70;;
19161;SDS011;9713;48.140;11.530;2023-12-29T09:44:26;3.50;;;1.20;;
19161;SDS011;9713;48.140;11.530;2023-12-29T09:48:10;2.33;;;1.40;;
19161;SDS011;9713;48.140;11.530;2023-12-29T09:51:55;2.00;;;1.50;;
19161;SDS011;9713;48.140;11.530;2023-12-29T09:55:40;3.27;;;1.40;;
19161;SDS011;9713;48.140;11.530;2023-12-29T09:59:23;3.53;;;1.40;;
19161;SDS011;9713;48.140;11.530;2023-12-29T10:03:08;1.97;;;1.30;;
19161;SDS011;9713;48.140;11.530;2023-12-29T10:06:51;2.87;;;1.30;;
19161;SDS011;9713;48.140;11.530;2023-12-29T10:10:37;2.30;;;1.40;;
19161;SDS011;9713;48.140;11.530;2023-12-29T10:14:22;3.87;;;1.53;;
19161;SDS011;9713;48.140;11.530;2023-12-29T10:18:07;2.70;;;1.13;;
19161;SDS011;9713;48.140;11.530;2023-12-29T10:22:00;3.63;;;1.53;;
19161;SDS011;9713;48.140;11.530;2023-12-29T10:25:45;2.83;;;1.33;;
19161;SDS011;9713;48.140;11.530;2023-12-29T10:29:30;1.47;;;1.03;;
19161;SDS011;9713;48.140;11.530;2023-12-29T10:33:18;3.23;;;0.90;;
19161;SDS011;9713;48.140;11.530;2023-12-29T10:37:04;1.77;;;1.10;;
19161;SDS011;9713;48.140;11.530;2023-12-29T10:40:51;1.70;;;1.00;;
19161;SDS011;9713;48.140;11.530;2023-12-29T10:44:34;1.93;;;1.10;;
19161;SDS011;9713;48.140;11.530;2023-12-29T10:48:21;1.27;;;1.00;;
19161;SDS011;9713;48.140;11.530;2023-12-29T10:52:13;1.23;;;0.90;;
19161;SDS011;9713;48.140;11.530;2023-12-29T10:55:57;1.53;;;0.77;;
19161;SDS011;9713;48.140;11.530;2023-12-29T10:59:40;1.37;;;0.90;;
19161;SDS011;9713;48.140;11.530;2023-12-29T11:03:23;2.50;;;0.80;;
19161;SDS011;9713;48.140;11.530;2023-12-29T11:07:06;1.23;;;0.90;;
19161;SDS011;9713;48.140;11.530;2023-12-29T11:10:52;1.30;;;0.90;;
19161;SDS011;9713;48.140;11.530;2023-12-29T11:14:36;1.83;;;1.00;;
19161;SDS011;9713;48.140;11.530;2023-12-29T11:18:24;3.77;;;1.00;;
19161;SDS011;9713;48.140;11.530;2023-12-29T11:22:07;2.23;;;1.07;;
19161;SDS011;9713;48.140;11.530;2023-12-29T11:25:52;2.77;;;1.20;;
19161;SDS011;9713;48.140;11.530;2023-12-29T11:29:35;1.30;;;1.13;;
19161;SDS011;9713;48.140;11.530;2023-12-29T11:33:18;2.50;;;1.00;;
19161;SDS011;9713;48.140;11.530;2023-12-29T11:37:05;2.33;;;1.63;;
19161;SDS011;9713;48.140;11.530;2023-12-29T11:41:10;1.37;;;1.00;;
19161;SDS011;9713;48.140;11.530;2023-12-29T11:45:23;2.20;;;1.40;;
19161;SDS011;9713;48.140;11.530;2023-12-29T11:49:17;2.13;;;1.00;;
19161;SDS011;9713;48.140;11.530;2023-12-29T11:53:00;2.33;;;1.50;;
19161;SDS011;9713;48.140;11.530;2023-12-29T11:56:46;1.60;;;1.20;;
19161;SDS011;9713;48.140;11.530;2023-12-29T12:00:42;3.00;;;1.43;;
19161;SDS011;9713;48.140;11.530;2023-12-29T12:04:38;3.03;;;1.67;;
19161;SDS011;9713;48.140;11.530;2023-12-29T12:08:27;1.60;;;1.17;;
19161;SDS011;9713;48.140;11.530;2023-12-29T12:12:14;1.50;;;1.10;;
19161;SDS011;9713;48.140;11.530;2023-12-29T12:15:57;1.80;;;1.53;;
19161;SDS011;9713;48.140;11.530;2023-12-29T12:19:40;1.30;;;1.00;;
19161;SDS011;9713;48.140;11.530;2023-12-29T12:23:24;1.87;;;1.40;;
19161;SDS011;9713;48.140;11.530;2023-12-29T12:27:09;2.63;;;1.27;;
19161;SDS011;9713;48.140;11.530;2023-12-29T12:30:53;1.30;;;1.10;;
19161;SDS011;9713;48.140;11.530;2023-12-29T12:34:47;1.50;;;1.10;;
19161;SDS011;9713;48.140;11.530;2023-12-29T12:38:30;1.93;;;1.20;;
19161;SDS011;9713;48.140;11.530;2023-12-29T12:42:15;1.17;;;0.90;;
19161;SDS011;9713;48.140;11.530;2023-12-29T12:46:00;1.47;;;1.00;;
19161;SDS011;9713;48.140;11.530;2023-12-29T12:49:44;1.77;;;1.20;;
19161;SDS011;9713;48.140;11.530;2023-12-29T12:53:28;1.73;;;1.33;;
19161;SDS011;9713;48.140;11.530;2023-12-29T12:57:11;2.73;;;1.43;;
19161;SDS011;9713;48.140;11.530;2023-12-29T13:00:56;2.10;;;1.13;;
19161;SDS011;9713;48.140;11.530;2023-12-29T13:04:41;1.33;;;1.00;;
19161;SDS011;9713;48.140;11.530;2023-12-29T13:08:25;1.90;;;1.50;;
19161;SDS011;9713;48.140;11.530;2023-12-29T13:12:18;3.40;;;1.60;;
19161;SDS011;9713;48.140;11.530;2023-12-29T13:16:01;1.77;;;1.30;;
19161;SDS011;9713;48.140;11.530;2023-12-29T13:19:46;1.00;;;0.80;;
19161;SDS011;9713;48.140;11.530;2023-12-29T13:23:38;1.70;;;1.00;;
19161;SDS011;9713;48.140;11.530;2023-12-29T13:27:22;3.10;;;1.10;;
19161;SDS011;9713;48.140;11.530;2023-12-29T13:31:05;2.70;;;0.93;;
19161;SDS011;9713;48.140;11.530;2023-12-29T13:34:50;1.00;;;0.80;;
19161;SDS011;9713;48.140;11.530;2023-12-29T13:38:37;2.37;;;1.00;;
19161;SDS011;9713;48.140;11.530;2023-12-29T13:42:26;1.17;;;0.90;;
19161;SDS011;9713;48.140;11.530;2023-12-29T13:50:23;2.13;;;1.10;;
19161;SDS011;9713;48.140;11.530;2023-12-29T13:54:07;2.37;;;1.17;;
19161;SDS011;9713;48.140;11.530;2023-12-29T13:57:52;1.83;;;1.07;;
19161;SDS011;9713;48.140;11.530;2023-12-29T14:01:39;1.00;;;0.80;;
19161;SDS011;9713;48.140;11.530;2023-12-29T14:05:27;2.17;;;0.90;;
19161;SDS011;9713;48.140;11.530;2023-12-29T14:09:13;1.07;;;0.80;;
19161;SDS011;9713;48.140;11.530;2023-12-29T14:23:36;1.93;;;1.00;;
19161;SDS011;9713;48.140;11.530;2023-12-29T14:27:19;2.33;;;1.10;;
19161;SDS011;9713;48.140;11.530;2023-12-29T14:31:02;1.97;;;1.20;;
19161;SDS011;9713;48.140;11.530;2023-12-29T14:34:47;1.60;;;1.10;;
19161;SDS011;9713;48.140;11.530;2023-12-29T14:38:34;1.57;;;1.10;;
19161;SDS011;9713;48.140;11.530;2023-12-29T14:42:18;3.00;;;0.90;;
19161;SDS011;9713;48.140;11.530;2023-12-29T14:46:01;1.23;;;0.80;;
19161;SDS011;9713;48.140;11.530;2023-12-29T14:49:44;2.17;;;0.87;;
19161;SDS011;9713;48.140;11.530;2023-12-29T14:53:28;1.73;;;1.03;;
19161;SDS011;9713;48.140;11.530;2023-12-29T14:57:11;1.50;;;0.87;;
19161;SDS011;9713;48.140;11.530;2023-12-29T15:01:03;0.93;;;0.77;;
19161;SDS011;9713;48.140;11.530;2023-12-29T15:04:46;3.83;;;1.10;;
19161;SDS011;9713;48.140;11.530;2023-12-29T15:08:30;1.60;;;0.93;;
19161;SDS011;9713;48.140;11.530;2023-12-29T15:12:16;1.60;;;1.00;;
19161;SDS011;9713;48.140;11.530;2023-12-29T15:15:59;2.17;;;1.07;;
19161;SDS011;9713;48.140;11.530;2023-12-29T15:19:43;2.20;;;0.97;;
19161;SDS011;9713;48.140;11.530;2023-12-29T15:23:26;2.23;;;1.10;;
19161;SDS011;9713;48.140;11.530;2023-12-29T15:27:10;3.50;;;1.10;;
19161;SDS011;9713;48.140;11.530;2023-12-29T15:30:53;1.93;;;1.20;;
19161;SDS011;9713;48.140;11.530;2023-12-29T15:34:36;1.90;;;1.10;;
19161;SDS011;9713;48.140;11.530;2023-12-29T15:38:20;2.07;;;1.00;;
19161;SDS011;9713;48.140;11.530;2023-12-29T15:42:03;2.83;;;1.63;;
19161;SDS011;9713;48.140;11.530;2023-12-29T15:45:47;4.87;;;1.50;;
19161;SDS011;9713;48.140;11.530;2023-12-29T15:49:30;2.23;;;1.30;;
19161;SDS011;9713;48.140;11.530;2023-12-29T15:53:13;2.27;;;0.90;;
19161;SDS011;9713;48.140;11.530;2023-12-29T15:56:58;1.60;;;1.10;;
19161;SDS011;9713;48.140;11.530;2023-12-29T16:00:41;1.67;;;1.10;;
19161;SDS011;9713;48.140;11.530;2023-12-29T16:04:24;1.53;;;1.10;;
19161;SDS011;9713;48.140;11.530;2023-12-29T16:08:07;2.10;;;1.07;;
19161;SDS011;9713;48.140;11.530;2023-12-29T16:11:50;1.83;;;1.20;;
19161;SDS011;9713;48.140;11.530;2023-12-29T16:15:37;1.83;;;1.00;;
19161;SDS011;9713;48.140;11.530;2023-12-29T16:19:20;3.63;;;1.80;;
19161;SDS011;9713;48.140;11.530;2023-12-29T16:23:03;4.77;;;1.60;;
19161;SDS011;9713;48.140;11.530;2023-12-29T16:26:47;2.60;;;1.60;;
19161;SDS011;9713;48.140;11.530;2023-12-29T16:30:32;1.93;;;1.33;;
19161;SDS011;9713;48.140;11.530;2023-12-29T16:34:17;3.03;;;1.50;;
19161;SDS011;9713;48.140;11.530;2023-12-29T16:38:01;2.10;;;1.40;;
19161;SDS011;9713;48.140;11.530;2023-12-29T16:41:48;2.93;;;1.93;;
19161;SDS011;9713;48.140;11.530;2023-12-29T16:45:30;3.37;;;1.80;;
19161;SDS011;9713;48.140;11.530;2023-12-29T16:49:14;2.70;;;1.60;;
19161;SDS011;9713;48.140;11.530;2023-12-29T16:52:58;4.10;;;2.10;;
19161;SDS011;9713;48.140;11.530;2023-12-29T16:56:42;3.17;;;2.07;;
19161;SDS011;9713;48.140;11.530;2023-12-29T17:00:25;3.13;;;1.70;;
19161;SDS011;9713;48.140;11.530;2023-12-29T17:04:08;4.27;;;1.50;;
19161;SDS011;9713;48.140;11.530;2023-12-29T17:07:53;3.33;;;1.60;;
19161;SDS011;9713;48.140;11.530;2023-12-29T17:11:40;2.90;;;1.60;;
19161;SDS011;9713;48.140;11.530;2023-12-29T17:15:24;3.03;;;1.73;;
19161;SDS011;9713;48.140;11.530;2023-12-29T17:19:07;2.73;;;1.57;;
19161;SDS011;9713;48.140;11.530;2023-12-29T17:22:50;2.37;;;1.70;;
19161;SDS011;9713;48.140;11.530;2023-12-29T17:26:33;2.67;;;1.80;;
19161;SDS011;9713;48.140;11.530;2023-12-29T17:30:17;2.83;;;1.93;;
19161;SDS011;9713;48.140;11.530;2023-12-29T17:34:00;5.97;;;2.07;;
19161;SDS011;9713;48.140;11.530;2023-12-29T17:37:44;3.10;;;2.00;;
19161;SDS011;9713;48.140;11.530;2023-12-29T17:41:26;4.20;;;2.03;;
19161;SDS011;9713;48.140;11.530;2023-12-29T17:45:09;4.43;;;2.23;;
19161;SDS011;9713;48.140;11.530;2023-12-29T17:48:54;5.80;;;2.40;;
19161;SDS011;9713;48.140;11.530;2023-12-29T17:52:37;3.53;;;2.13;;
19161;SDS011;9713;48.140;11.530;2023-12-29T17:56:20;4.93;;;2.53;;
19161;SDS011;9713;48.140;11.530;2023-12-29T18:00:03;4.83;;;2.70;;
19161;SDS011;9713;48.140;11.530;2023-12-29T18:03:47;4.97;;;2.90;;
19161;SDS011;9713;48.140;11.530;2023-12-29T18:07:32;4.13;;;2.43;;
19161;SDS011;9713;48.140;11.530;2023-12-29T18:11:15;4.83;;;2.83;;
19161;SDS011;9713;48.140;11.530;2023-12-29T18:15:00;3.17;;;2.10;;
19161;SDS011;9713;48.140;11.530;2023-12-29T18:18:43;4.07;;;1.90;;
19161;SDS011;9713;48.140;11.530;2023-12-29T18:22:27;3.27;;;1.90;;
19161;SDS011;9713;48.140;11.530;2023-12-29T18:26:12;6.60;;;2.10;;
19161;SDS011;9713;48.140;11.530;2023-12-29T18:29:55;3.77;;;2.20;;
19161;SDS011;9713;48.140;11.530;2023-12-29T18:33:39;3.60;;;2.20;;
19161;SDS011;9713;48.140;11.530;2023-12-29T18:37:22;6.03;;;2.83;;
19161;SDS011;9713;48.140;11.530;2023-12-29T18:41:05;4.97;;;1.73;;
19161;SDS011;9713;48.140;11.530;2023-12-29T18:44:50;3.87;;;2.30;;
19161;SDS011;9713;48.140;11.530;2023-12-29T18:48:33;5.57;;;2.80;;
19161;SDS011;9713;48.140;11.530;2023-12-29T18:52:17;5.20;;;3.10;;
19161;SDS011;9713;48.140;11.530;2023-12-29T18:56:03;4.60;;;2.87;;
19161;SDS011;9713;48.140;11.530;2023-12-29T18:59:47;4.30;;;2.70;;
19161;SDS011;9713;48.140;11.530;2023-12-29T19:03:32;4.47;;;2.77;;
19161;SDS011;9713;48.140;11.530;2023-12-29T19:07:16;6.67;;;3.20;;
19161;SDS011;9713;48.140;11.530;2023-12-29T19:11:04;6.27;;;3.40;;
19161;SDS011;9713;48.140;11.530;2023-12-29T19:14:48;7.07;;;4.07;;
19161;SDS011;9713;48.140;11.530;2023-12-29T19:18:36;7.00;;;3.80;;
19161;SDS011;9713;48.140;11.530;2023-12-29T19:22:19;5.63;;;3.53;;
19161;SDS011;9713;48.140;11.530;2023-12-29T19:26:02;5.07;;;3.07;;
19161;SDS011;9713;48.140;11.530;2023-12-29T19:29:45;8.07;;;3.27;;
19161;SDS011;9713;48.140;11.530;2023-12-29T19:33:28;5.70;;;3.27;;
19161;SDS011;9713;48.140;11.530;2023-12-29T19:37:12;4.23;;;2.80;;
19161;SDS011;9713;48.140;11.530;2023-12-29T19:40:56;3.47;;;2.40;;
19161;SDS011;9713;48.140;11.530;2023-12-29T19:44:40;2.97;;;2.20;;
19161;SDS011;9713;48.140;11.530;2023-12-29T19:48:22;4.23;;;1.97;;
19161;SDS011;9713;48.140;11.530;2023-12-29T19:52:06;3.40;;;1.90;;
19161;SDS011;9713;48.140;11.530;2023-12-29T19:55:50;1.93;;;1.00;;
19161;SDS011;9713;48.140;11.530;2023-12-29T19:59:34;2.17;;;1.30;;
19161;SDS011;9713;48.140;11.530;2023-12-29T20:03:16;2.30;;;0.93;;
19161;SDS011;9713;48.140;11.530;2023-12-29T20:07:04;2.10;;;1.27;;
19161;SDS011;9713;48.140;11.530;2023-12-29T20:10:47;1.77;;;1.10;;
19161;SDS011;9713;48.140;11.530;2023-12-29T20:14:31;1.60;;;1.03;;
19161;SDS011;9713;48.140;11.530;2023-12-29T20:18:14;2.03;;;1.20;;
19161;SDS011;9713;48.140;11.530;2023-12-29T20:21:57;1.30;;;0.97;;
19161;SDS011;9713;48.140;11.530;2023-12-29T20:25:40;2.30;;;1.30;;
19161;SDS011;9713;48.140;11.530;2023-12-29T20:29:26;2.30;;;1.10;;
19161;SDS011;9713;48.140;11.530;2023-12-29T20:33:11;1.43;;;0.90;;
19161;SDS011;9713;48.140;11.530;2023-12-29T20:36:55;1.53;;;0.70;;
19161;SDS011;9713;48.140;11.530;2023-12-29T20:40:38;1.97;;;0.80;;
19161;SDS011;9713;48.140;11.530;2023-12-29T20:44:21;2.33;;;0.80;;
19161;SDS011;9713;48.140;11.530;2023-12-29T20:48:04;0.90;;;0.70;;
19161;SDS011;9713;48.140;11.530;2023-12-29T20:51:49;0.70;;;0.70;;
19161;SDS011;9713;48.140;11.530;2023-12-29T20:55:32;1.63;;;0.80;;
19161;SDS011;9713;48.140;11.530;2023-12-29T20:59:15;1.67;;;0.83;;
19161;SDS011;9713;48.140;11.530;2023-12-29T21:02:58;1.50;;;0.70;;
19161;SDS011;9713;48.140;11.530;2023-12-29T21:06:41;5.33;;;2.90;;
19161;SDS011;9713;48.140;11.530;2023-12-29T21:10:26;1.53;;;0.97;;
19161;SDS011;9713;48.140;11.530;2023-12-29T21:14:09;1.10;;;0.80;;
19161;SDS011;9713;48.140;11.530;2023-12-29T21:17:52;1.50;;;0.90;;
19161;SDS011;9713;48.140;11.530;2023-12-29T21:21:36;1.60;;;1.00;;
19161;SDS011;9713;48.140;11.530;2023-12-29T21:25:19;1.77;;;0.90;;
19161;SDS011;9713;48.140;11.530;2023-12-29T21:29:04;1.27;;;0.77;;
19161;SDS011;9713;48.140;11.530;2023-12-29T21:32:47;1.47;;;0.70;;
19161;SDS011;9713;48.140;11.530;2023-12-29T21:36:30;1.40;;;0.90;;
19161;SDS011;9713;48.140;11.530;2023-12-29T21:40:14;1.13;;;0.80;;
19161;SDS011;9713;48.140;11.530;2023-12-29T21:43:57;1.57;;;0.90;;
19161;SDS011;9713;48.140;11.530;2023-12-29T21:47:46;3.27;;;1.07;;
19161;SDS011;9713;48.140;11.530;2023-12-29T21:51:29;2.80;;;1.00;;
19161;SDS011;9713;48.140;11.530;2023-12-29T21:55:12;0.77;;;0.63;;
19161;SDS011;9713;48.140;11.530;2023-12-29T21:58:55;2.90;;;1.00;;
19161;SDS011;9713;48.140;11.530;2023-12-29T22:02:41;2.20;;;0.73;;
19161;SDS011;9713;48.140;11.530;2023-12-29T22:06:35;1.60;;;1.00;;
19161;SDS011;9713;48.140;11.530;2023-12-29T22:10:19;1.00;;;0.90;;
19161;SDS011;9713;48.140;11.530;2023-12-29T22:14:02;1.40;;;1.00;;
19161;SDS011;9713;48.140;11.530;2023-12-29T22:17:46;2.70;;;0.90;;
19161;SDS011;9713;48.140;11.530;2023-12-29T22:21:31;1.43;;;0.77;;
19161;SDS011;9713;48.140;11.530;2023-12-29T22:25:14;1.10;;;0.90;;
19161;SDS011;9713;48.140;11.530;2023-12-29T22:28:57;1.30;;;0.70;;
19161;SDS011;9713;48.140;11.530;2023-12-29T22:32:40;2.63;;;1.00;;
19161;SDS011;9713;48.140;11.530;2023-12-29T22:36:25;2.43;;;1.10;;
19161;SDS011;9713;48.140;11.530;2023-12-29T22:40:10;1.77;;;1.00;;
19161;SDS011;9713;48.140;11.530;2023-12-29T22:43:53;1.67;;;1.00;;
19161;SDS011;9713;48.140;11.530;2023-12-29T22:47:36;1.57;;;0.90;;